sensor_id;sensor_type;location;lat;lon;timestamp;P1;durP1;ratioP1;P2;durP2;ratioP2
28629;SDS011;15817;42.130;24.762;2022-10-16T00:01:38;7.40;;;4.18;;
28629;SDS011;15817;42.130;24.762;2022-10-16T00:04:04;6.18;;;3.85;;
28629;SDS011;15817;42.130;24.762;2022-10-16T00:06:30;7.20;;;3.42;;
28629;SDS011;15817;42.130;24.762;2022-10-16T00:08:59;9.32;;;4.05;;
28629;SDS011;15817;42.130;24.762;2022-10-16T00:11:32;8.13;;;3.70;;
28629;SDS011;15817;42.130;24.762;2022-10-16T00:14:03;8.02;;;3.97;;
28629;SDS011;15817;42.130;24.762;2022-10-16T00:16:30;6.63;;;3.95;;
28629;SDS011;15817;42.130;24.762;2022-10-16T00:18:57;6.07;;;3.60;;
28629;SDS011;15817;42.130;24.762;2022-10-16T00:21:24;7.38;;;4.28;;
28629;SDS011;15817;42.130;24.762;2022-10-16T00:23:52;8.77;;;3.97;;
28629;SDS011;15817;42.130;24.762;2022-10-16T00:26:21;5.43;;;3.75;;
28629;SDS011;15817;42.130;24.762;2022-10-16T00:28:49;7.47;;;4.18;;
28629;SDS011;15817;42.130;24.762;2022-10-16T00:31:19;6.68;;;3.90;;
28629;SDS011;15817;42.130;24.762;2022-10-16T00:33:49;9.50;;;4.28;;
28629;SDS011;15817;42.130;24.762;2022-10-16T00:36:17;11.55;;;4.20;;
28629;SDS011;15817;42.130;24.762;2022-10-16T00:38:46;7.20;;;4.00;;
28629;SDS011;15817;42.130;24.762;2022-10-16T00:41:14;8.10;;;4.47;;
28629;SDS011;15817;42.130;24.762;2022-10-16T00:43:46;10.15;;;4.40;;
28629;SDS011;15817;42.130;24.762;2022-10-16T00:48:53;6.47;;;4.07;;
28629;SDS011;15817;42.130;24.762;2022-10-16T00:51:21;8.80;;;4.50;;
28629;SDS011;15817;42.130;24.762;2022-10-16T00:53:53;8.82;;;4.22;;
28629;SDS011;15817;42.130;24.762;2022-10-16T00:56:20;12.75;;;4.78;;
28629;SDS011;15817;42.130;24.762;2022-10-16T00:58:46;9.40;;;4.90;;
28629;SDS011;15817;42.130;24.762;2022-10-16T01:01:12;9.30;;;4.30;;
28629;SDS011;15817;42.130;24.762;2022-10-16T01:03:38;7.03;;;4.45;;
28629;SDS011;15817;42.130;24.762;2022-10-16T01:11:57;9.00;;;5.57;;
28629;SDS011;15817;42.130;24.762;2022-10-16T01:17:27;13.50;;;6.72;;
28629;SDS011;15817;42.130;24.762;2022-10-16T01:22:50;10.48;;;5.95;;
28629;SDS011;15817;42.130;24.762;2022-10-16T01:25:30;13.77;;;6.70;;
28629;SDS011;15817;42.130;24.762;2022-10-16T01:28:17;12.00;;;6.65;;
28629;SDS011;15817;42.130;24.762;2022-10-16T01:30:47;11.48;;;6.60;;
28629;SDS011;15817;42.130;24.762;2022-10-16T01:33:34;12.15;;;6.38;;
28629;SDS011;15817;42.130;24.762;2022-10-16T01:36:08;13.10;;;6.35;;
28629;SDS011;15817;42.130;24.762;2022-10-16T01:38:45;13.40;;;6.45;;
28629;SDS011;15817;42.130;24.762;2022-10-16T01:41:14;9.52;;;5.90;;
28629;SDS011;15817;42.130;24.762;2022-10-16T01:43:49;12.50;;;5.82;;
28629;SDS011;15817;42.130;24.762;2022-10-16T01:46:25;11.10;;;6.68;;
28629;SDS011;15817;42.130;24.762;2022-10-16T01:48:52;9.40;;;6.25;;
28629;SDS011;15817;42.130;24.762;2022-10-16T01:51:25;11.38;;;5.95;;
28629;SDS011;15817;42.130;24.762;2022-10-16T01:53:53;12.23;;;6.55;;
28629;SDS011;15817;42.130;24.762;2022-10-16T01:56:22;10.13;;;6.82;;
28629;SDS011;15817;42.130;24.762;2022-10-16T02:01:42;13.88;;;6.65;;
28629;SDS011;15817;42.130;24.762;2022-10-16T02:04:34;8.57;;;5.88;;
28629;SDS011;15817;42.130;24.762;2022-10-16T02:07:02;8.65;;;6.25;;
28629;SDS011;15817;42.130;24.762;2022-10-16T02:09:29;10.43;;;6.07;;
28629;SDS011;15817;42.130;24.762;2022-10-16T02:11:57;12.38;;;6.80;;
28629;SDS011;15817;42.130;24.762;2022-10-16T02:14:28;10.70;;;6.32;;
28629;SDS011;15817;42.130;24.762;2022-10-16T02:16:57;12.85;;;6.30;;
28629;SDS011;15817;42.130;24.762;2022-10-16T02:19:23;10.85;;;6.93;;
28629;SDS011;15817;42.130;24.762;2022-10-16T02:22:00;12.57;;;6.38;;
28629;SDS011;15817;42.130;24.762;2022-10-16T02:24:32;11.05;;;6.50;;
28629;SDS011;15817;42.130;24.762;2022-10-16T02:29:40;15.75;;;7.30;;
28629;SDS011;15817;42.130;24.762;2022-10-16T02:32:14;10.10;;;6.85;;
28629;SDS011;15817;42.130;24.762;2022-10-16T02:34:43;11.40;;;6.63;;
28629;SDS011;15817;42.130;24.762;2022-10-16T02:37:13;10.88;;;6.35;;
28629;SDS011;15817;42.130;24.762;2022-10-16T02:39:47;12.80;;;6.50;;
28629;SDS011;15817;42.130;24.762;2022-10-16T02:42:14;12.40;;;6.90;;
28629;SDS011;15817;42.130;24.762;2022-10-16T02:44:40;13.65;;;6.45;;
28629;SDS011;15817;42.130;24.762;2022-10-16T02:47:06;12.05;;;6.25;;
28629;SDS011;15817;42.130;24.762;2022-10-16T02:49:32;10.10;;;6.78;;
28629;SDS011;15817;42.130;24.762;2022-10-16T02:51:58;13.32;;;6.47;;
28629;SDS011;15817;42.130;24.762;2022-10-16T02:54:26;10.75;;;6.60;;
28629;SDS011;15817;42.130;24.762;2022-10-16T02:56:54;14.23;;;5.95;;
28629;SDS011;15817;42.130;24.762;2022-10-16T02:59:20;10.68;;;7.00;;
28629;SDS011;15817;42.130;24.762;2022-10-16T03:01:46;11.98;;;6.18;;
28629;SDS011;15817;42.130;24.762;2022-10-16T03:04:12;11.98;;;7.28;;
28629;SDS011;15817;42.130;24.762;2022-10-16T03:06:40;14.07;;;6.78;;
28629;SDS011;15817;42.130;24.762;2022-10-16T03:09:06;13.80;;;6.72;;
28629;SDS011;15817;42.130;24.762;2022-10-16T03:11:32;11.90;;;7.53;;
28629;SDS011;15817;42.130;24.762;2022-10-16T03:13:58;10.68;;;6.28;;
28629;SDS011;15817;42.130;24.762;2022-10-16T03:16:23;14.55;;;7.10;;
28629;SDS011;15817;42.130;24.762;2022-10-16T03:18:49;10.13;;;6.82;;
28629;SDS011;15817;42.130;24.762;2022-10-16T03:21:22;8.13;;;6.38;;
28629;SDS011;15817;42.130;24.762;2022-10-16T03:23:48;13.20;;;6.82;;
28629;SDS011;15817;42.130;24.762;2022-10-16T03:26:16;11.90;;;6.90;;
28629;SDS011;15817;42.130;24.762;2022-10-16T03:28:42;11.23;;;7.10;;
28629;SDS011;15817;42.130;24.762;2022-10-16T03:31:10;12.55;;;7.07;;
28629;SDS011;15817;42.130;24.762;2022-10-16T03:33:36;14.18;;;7.22;;
28629;SDS011;15817;42.130;24.762;2022-10-16T03:36:02;13.73;;;7.47;;
28629;SDS011;15817;42.130;24.762;2022-10-16T03:38:28;12.05;;;6.93;;
28629;SDS011;15817;42.130;24.762;2022-10-16T03:40:56;14.63;;;7.43;;
28629;SDS011;15817;42.130;24.762;2022-10-16T03:43:22;9.82;;;6.18;;
28629;SDS011;15817;42.130;24.762;2022-10-16T03:45:47;11.73;;;6.72;;
28629;SDS011;15817;42.130;24.762;2022-10-16T03:48:18;10.90;;;6.88;;
28629;SDS011;15817;42.130;24.762;2022-10-16T03:50:51;12.93;;;6.75;;
28629;SDS011;15817;42.130;24.762;2022-10-16T03:53:17;13.02;;;7.32;;
28629;SDS011;15817;42.130;24.762;2022-10-16T03:55:43;12.20;;;6.72;;
28629;SDS011;15817;42.130;24.762;2022-10-16T03:58:09;16.02;;;7.25;;
28629;SDS011;15817;42.130;24.762;2022-10-16T04:00:44;14.45;;;7.03;;
28629;SDS011;15817;42.130;24.762;2022-10-16T04:03:11;15.23;;;7.85;;
28629;SDS011;15817;42.130;24.762;2022-10-16T04:05:37;11.80;;;7.05;;
28629;SDS011;15817;42.130;24.762;2022-10-16T04:08:03;10.13;;;7.15;;
28629;SDS011;15817;42.130;24.762;2022-10-16T04:10:36;14.50;;;7.97;;
28629;SDS011;15817;42.130;24.762;2022-10-16T04:13:02;12.27;;;6.90;;
28629;SDS011;15817;42.130;24.762;2022-10-16T04:15:34;13.23;;;6.68;;
28629;SDS011;15817;42.130;24.762;2022-10-16T04:18:00;11.13;;;7.47;;
28629;SDS011;15817;42.130;24.762;2022-10-16T04:20:26;12.50;;;7.47;;
28629;SDS011;15817;42.130;24.762;2022-10-16T04:22:55;10.30;;;7.45;;
28629;SDS011;15817;42.130;24.762;2022-10-16T04:25:32;15.15;;;7.75;;
28629;SDS011;15817;42.130;24.762;2022-10-16T04:28:06;11.88;;;7.82;;
28629;SDS011;15817;42.130;24.762;2022-10-16T04:30:32;12.98;;;7.35;;
28629;SDS011;15817;42.130;24.762;2022-10-16T04:32:59;15.35;;;7.38;;
28629;SDS011;15817;42.130;24.762;2022-10-16T04:35:24;10.48;;;7.25;;
28629;SDS011;15817;42.130;24.762;2022-10-16T04:37:53;16.05;;;9.10;;
28629;SDS011;15817;42.130;24.762;2022-10-16T04:40:22;11.30;;;7.93;;
28629;SDS011;15817;42.130;24.762;2022-10-16T04:42:49;14.30;;;7.43;;
28629;SDS011;15817;42.130;24.762;2022-10-16T04:45:17;11.02;;;7.00;;
28629;SDS011;15817;42.130;24.762;2022-10-16T04:47:43;16.00;;;7.43;;
28629;SDS011;15817;42.130;24.762;2022-10-16T04:50:18;14.27;;;8.05;;
28629;SDS011;15817;42.130;24.762;2022-10-16T04:53:00;15.40;;;7.35;;
28629;SDS011;15817;42.130;24.762;2022-10-16T04:55:28;15.23;;;7.88;;
28629;SDS011;15817;42.130;24.762;2022-10-16T05:00:45;16.83;;;8.27;;
28629;SDS011;15817;42.130;24.762;2022-10-16T05:03:12;17.52;;;7.40;;
28629;SDS011;15817;42.130;24.762;2022-10-16T05:08:59;15.57;;;7.55;;
28629;SDS011;15817;42.130;24.762;2022-10-16T05:11:30;16.67;;;7.68;;
28629;SDS011;15817;42.130;24.762;2022-10-16T05:13:56;13.90;;;7.15;;
28629;SDS011;15817;42.130;24.762;2022-10-16T05:16:35;14.35;;;8.20;;
28629;SDS011;15817;42.130;24.762;2022-10-16T05:19:01;15.30;;;7.95;;
28629;SDS011;15817;42.130;24.762;2022-10-16T05:21:33;14.30;;;8.10;;
28629;SDS011;15817;42.130;24.762;2022-10-16T05:24:21;12.52;;;8.05;;
28629;SDS011;15817;42.130;24.762;2022-10-16T05:26:47;20.55;;;8.05;;
28629;SDS011;15817;42.130;24.762;2022-10-16T05:29:13;12.10;;;7.70;;
28629;SDS011;15817;42.130;24.762;2022-10-16T05:31:45;19.65;;;8.57;;
28629;SDS011;15817;42.130;24.762;2022-10-16T05:34:11;14.77;;;8.00;;
28629;SDS011;15817;42.130;24.762;2022-10-16T05:36:42;24.40;;;8.80;;
28629;SDS011;15817;42.130;24.762;2022-10-16T05:39:14;24.13;;;8.50;;
28629;SDS011;15817;42.130;24.762;2022-10-16T05:42:01;18.83;;;7.97;;
28629;SDS011;15817;42.130;24.762;2022-10-16T05:44:37;13.18;;;8.30;;
28629;SDS011;15817;42.130;24.762;2022-10-16T05:47:13;12.80;;;7.53;;
28629;SDS011;15817;42.130;24.762;2022-10-16T05:49:55;13.70;;;8.38;;
28629;SDS011;15817;42.130;24.762;2022-10-16T05:52:27;12.18;;;7.53;;
28629;SDS011;15817;42.130;24.762;2022-10-16T05:54:58;13.82;;;7.22;;
28629;SDS011;15817;42.130;24.762;2022-10-16T05:57:29;11.77;;;7.82;;
28629;SDS011;15817;42.130;24.762;2022-10-16T05:59:55;12.30;;;7.00;;
28629;SDS011;15817;42.130;24.762;2022-10-16T06:02:21;14.00;;;6.95;;
28629;SDS011;15817;42.130;24.762;2022-10-16T06:04:53;11.80;;;7.63;;
28629;SDS011;15817;42.130;24.762;2022-10-16T06:07:27;12.40;;;6.45;;
28629;SDS011;15817;42.130;24.762;2022-10-16T06:13:23;10.85;;;6.88;;
28629;SDS011;15817;42.130;24.762;2022-10-16T06:16:14;14.40;;;6.88;;
28629;SDS011;15817;42.130;24.762;2022-10-16T06:18:53;8.60;;;6.00;;
28629;SDS011;15817;42.130;24.762;2022-10-16T06:21:23;7.68;;;5.82;;
28629;SDS011;15817;42.130;24.762;2022-10-16T06:23:54;9.85;;;5.05;;
28629;SDS011;15817;42.130;24.762;2022-10-16T06:26:25;7.60;;;5.03;;
28629;SDS011;15817;42.130;24.762;2022-10-16T06:28:56;6.28;;;4.57;;
28629;SDS011;15817;42.130;24.762;2022-10-16T06:31:30;9.75;;;5.95;;
28629;SDS011;15817;42.130;24.762;2022-10-16T06:34:26;12.65;;;6.05;;
28629;SDS011;15817;42.130;24.762;2022-10-16T06:37:04;6.88;;;4.97;;
28629;SDS011;15817;42.130;24.762;2022-10-16T06:39:37;6.60;;;5.28;;
28629;SDS011;15817;42.130;24.762;2022-10-16T06:42:02;8.57;;;5.38;;
28629;SDS011;15817;42.130;24.762;2022-10-16T06:44:35;5.22;;;4.72;;
28629;SDS011;15817;42.130;24.762;2022-10-16T06:47:06;8.70;;;4.70;;
28629;SDS011;15817;42.130;24.762;2022-10-16T06:49:39;7.47;;;5.15;;
28629;SDS011;15817;42.130;24.762;2022-10-16T06:52:05;15.25;;;5.53;;
28629;SDS011;15817;42.130;24.762;2022-10-16T06:54:43;7.28;;;5.35;;
28629;SDS011;15817;42.130;24.762;2022-10-16T06:57:12;12.30;;;6.93;;
28629;SDS011;15817;42.130;24.762;2022-10-16T06:59:59;11.63;;;6.47;;
28629;SDS011;15817;42.130;24.762;2022-10-16T07:02:39;11.93;;;6.13;;
28629;SDS011;15817;42.130;24.762;2022-10-16T07:05:08;12.82;;;7.65;;
28629;SDS011;15817;42.130;24.762;2022-10-16T07:08:14;8.25;;;5.75;;
28629;SDS011;15817;42.130;24.762;2022-10-16T07:10:42;10.98;;;6.28;;
28629;SDS011;15817;42.130;24.762;2022-10-16T07:13:32;9.63;;;6.28;;
28629;SDS011;15817;42.130;24.762;2022-10-16T07:16:15;8.18;;;6.00;;
28629;SDS011;15817;42.130;24.762;2022-10-16T07:18:55;9.45;;;6.03;;
28629;SDS011;15817;42.130;24.762;2022-10-16T07:21:45;10.57;;;6.78;;
28629;SDS011;15817;42.130;24.762;2022-10-16T07:24:12;7.90;;;5.68;;
28629;SDS011;15817;42.130;24.762;2022-10-16T07:26:45;10.05;;;5.75;;
28629;SDS011;15817;42.130;24.762;2022-10-16T07:29:15;12.48;;;6.28;;
28629;SDS011;15817;42.130;24.762;2022-10-16T07:31:43;12.43;;;6.07;;
28629;SDS011;15817;42.130;24.762;2022-10-16T07:34:13;9.20;;;5.82;;
28629;SDS011;15817;42.130;24.762;2022-10-16T07:36:40;7.70;;;5.20;;
28629;SDS011;15817;42.130;24.762;2022-10-16T07:39:06;10.80;;;6.13;;
28629;SDS011;15817;42.130;24.762;2022-10-16T07:41:33;16.08;;;6.65;;
28629;SDS011;15817;42.130;24.762;2022-10-16T07:44:03;14.45;;;6.60;;
28629;SDS011;15817;42.130;24.762;2022-10-16T07:46:35;7.00;;;5.63;;
28629;SDS011;15817;42.130;24.762;2022-10-16T07:49:04;8.25;;;5.22;;
28629;SDS011;15817;42.130;24.762;2022-10-16T07:51:30;8.38;;;5.88;;
28629;SDS011;15817;42.130;24.762;2022-10-16T07:53:58;10.55;;;5.45;;
28629;SDS011;15817;42.130;24.762;2022-10-16T07:56:26;6.97;;;5.43;;
28629;SDS011;15817;42.130;24.762;2022-10-16T07:58:52;6.68;;;5.25;;
28629;SDS011;15817;42.130;24.762;2022-10-16T08:01:21;15.65;;;5.22;;
28629;SDS011;15817;42.130;24.762;2022-10-16T08:03:50;10.38;;;5.30;;
28629;SDS011;15817;42.130;24.762;2022-10-16T08:06:17;12.48;;;5.32;;
28629;SDS011;15817;42.130;24.762;2022-10-16T08:08:47;8.68;;;5.68;;
28629;SDS011;15817;42.130;24.762;2022-10-16T08:11:13;7.00;;;5.70;;
28629;SDS011;15817;42.130;24.762;2022-10-16T08:13:40;9.80;;;6.03;;
28629;SDS011;15817;42.130;24.762;2022-10-16T08:16:09;12.85;;;6.93;;
28629;SDS011;15817;42.130;24.762;2022-10-16T08:18:39;8.27;;;5.53;;
28629;SDS011;15817;42.130;24.762;2022-10-16T08:21:17;9.30;;;5.13;;
28629;SDS011;15817;42.130;24.762;2022-10-16T08:23:50;9.07;;;4.93;;
28629;SDS011;15817;42.130;24.762;2022-10-16T08:26:16;11.32;;;5.32;;
28629;SDS011;15817;42.130;24.762;2022-10-16T08:28:50;9.32;;;5.00;;
28629;SDS011;15817;42.130;24.762;2022-10-16T08:31:29;6.20;;;4.40;;
28629;SDS011;15817;42.130;24.762;2022-10-16T08:34:00;5.65;;;4.10;;
28629;SDS011;15817;42.130;24.762;2022-10-16T08:36:32;11.25;;;5.05;;
28629;SDS011;15817;42.130;24.762;2022-10-16T08:38:58;7.45;;;5.15;;
28629;SDS011;15817;42.130;24.762;2022-10-16T08:48:26;8.77;;;4.22;;
28629;SDS011;15817;42.130;24.762;2022-10-16T08:50:52;7.55;;;4.90;;
28629;SDS011;15817;42.130;24.762;2022-10-16T08:53:52;9.18;;;5.35;;
28629;SDS011;15817;42.130;24.762;2022-10-16T08:56:18;12.10;;;4.70;;
28629;SDS011;15817;42.130;24.762;2022-10-16T08:58:47;10.70;;;4.18;;
28629;SDS011;15817;42.130;24.762;2022-10-16T09:01:14;6.47;;;4.35;;
28629;SDS011;15817;42.130;24.762;2022-10-16T09:12:52;11.63;;;4.10;;
28629;SDS011;15817;42.130;24.762;2022-10-16T09:19:25;5.72;;;3.90;;
28629;SDS011;15817;42.130;24.762;2022-10-16T09:22:16;9.38;;;4.63;;
28629;SDS011;15817;42.130;24.762;2022-10-16T09:24:43;9.15;;;4.95;;
28629;SDS011;15817;42.130;24.762;2022-10-16T09:27:15;8.70;;;4.40;;
28629;SDS011;15817;42.130;24.762;2022-10-16T09:29:40;17.13;;;6.80;;
28629;SDS011;15817;42.130;24.762;2022-10-16T09:32:14;9.73;;;5.25;;
28629;SDS011;15817;42.130;24.762;2022-10-16T09:35:09;9.25;;;4.43;;
28629;SDS011;15817;42.130;24.762;2022-10-16T09:44:59;5.50;;;3.50;;
28629;SDS011;15817;42.130;24.762;2022-10-16T09:47:26;7.28;;;4.53;;
28629;SDS011;15817;42.130;24.762;2022-10-16T09:50:03;17.45;;;4.60;;
28629;SDS011;15817;42.130;24.762;2022-10-16T09:53:13;6.63;;;3.35;;
28629;SDS011;15817;42.130;24.762;2022-10-16T09:55:49;7.97;;;4.20;;
28629;SDS011;15817;42.130;24.762;2022-10-16T09:58:21;9.65;;;3.60;;
28629;SDS011;15817;42.130;24.762;2022-10-16T10:01:14;4.88;;;3.40;;
28629;SDS011;15817;42.130;24.762;2022-10-16T10:07:16;5.75;;;4.13;;
28629;SDS011;15817;42.130;24.762;2022-10-16T10:09:47;6.57;;;3.78;;
28629;SDS011;15817;42.130;24.762;2022-10-16T10:12:49;13.20;;;4.32;;
28629;SDS011;15817;42.130;24.762;2022-10-16T10:15:33;9.02;;;4.90;;
28629;SDS011;15817;42.130;24.762;2022-10-16T10:18:18;5.32;;;3.13;;
28629;SDS011;15817;42.130;24.762;2022-10-16T10:21:00;7.03;;;3.60;;
28629;SDS011;15817;42.130;24.762;2022-10-16T10:24:04;5.47;;;3.20;;
28629;SDS011;15817;42.130;24.762;2022-10-16T10:26:34;4.78;;;2.88;;
28629;SDS011;15817;42.130;24.762;2022-10-16T10:35:07;4.07;;;3.28;;
28629;SDS011;15817;42.130;24.762;2022-10-16T10:46:06;4.90;;;3.20;;
28629;SDS011;15817;42.130;24.762;2022-10-16T10:48:54;7.43;;;3.60;;
28629;SDS011;15817;42.130;24.762;2022-10-16T10:51:57;7.13;;;3.50;;
28629;SDS011;15817;42.130;24.762;2022-10-16T11:02:06;7.38;;;3.03;;
28629;SDS011;15817;42.130;24.762;2022-10-16T11:08:10;4.40;;;2.80;;
28629;SDS011;15817;42.130;24.762;2022-10-16T11:13:44;6.05;;;3.50;;
28629;SDS011;15817;42.130;24.762;2022-10-16T11:16:31;3.78;;;2.67;;
28629;SDS011;15817;42.130;24.762;2022-10-16T11:19:56;5.05;;;3.10;;
28629;SDS011;15817;42.130;24.762;2022-10-16T11:22:47;6.25;;;2.95;;
28629;SDS011;15817;42.130;24.762;2022-10-16T11:30:34;3.85;;;3.13;;
28629;SDS011;15817;42.130;24.762;2022-10-16T11:39:33;14.65;;;3.55;;
28629;SDS011;15817;42.130;24.762;2022-10-16T11:54:08;4.22;;;2.70;;
28629;SDS011;15817;42.130;24.762;2022-10-16T11:56:50;3.83;;;2.72;;
28629;SDS011;15817;42.130;24.762;2022-10-16T12:06:00;5.25;;;3.00;;
28629;SDS011;15817;42.130;24.762;2022-10-16T12:08:44;7.28;;;2.97;;
28629;SDS011;15817;42.130;24.762;2022-10-16T12:11:40;5.80;;;3.15;;
28629;SDS011;15817;42.130;24.762;2022-10-16T12:14:39;5.32;;;3.20;;
28629;SDS011;15817;42.130;24.762;2022-10-16T12:19:56;6.10;;;3.60;;
28629;SDS011;15817;42.130;24.762;2022-10-16T12:22:24;5.07;;;2.85;;
28629;SDS011;15817;42.130;24.762;2022-10-16T12:24:55;6.15;;;3.08;;
28629;SDS011;15817;42.130;24.762;2022-10-16T12:27:30;4.63;;;3.10;;
28629;SDS011;15817;42.130;24.762;2022-10-16T12:30:14;4.22;;;3.33;;
28629;SDS011;15817;42.130;24.762;2022-10-16T12:35:50;3.97;;;3.05;;
28629;SDS011;15817;42.130;24.762;2022-10-16T12:38:21;5.68;;;3.35;;
28629;SDS011;15817;42.130;24.762;2022-10-16T12:41:04;6.05;;;3.13;;
28629;SDS011;15817;42.130;24.762;2022-10-16T12:43:35;5.65;;;3.38;;
28629;SDS011;15817;42.130;24.762;2022-10-16T12:48:39;3.97;;;2.83;;
28629;SDS011;15817;42.130;24.762;2022-10-16T12:59:40;5.45;;;3.63;;
28629;SDS011;15817;42.130;24.762;2022-10-16T13:08:24;4.88;;;3.45;;
28629;SDS011;15817;42.130;24.762;2022-10-16T13:20:46;5.18;;;3.80;;
28629;SDS011;15817;42.130;24.762;2022-10-16T13:23:33;24.65;;;4.72;;
28629;SDS011;15817;42.130;24.762;2022-10-16T13:29:20;6.88;;;3.70;;
28629;SDS011;15817;42.130;24.762;2022-10-16T13:31:46;8.00;;;3.40;;
28629;SDS011;15817;42.130;24.762;2022-10-16T13:34:14;6.30;;;3.40;;
28629;SDS011;15817;42.130;24.762;2022-10-16T13:36:48;6.10;;;3.70;;
28629;SDS011;15817;42.130;24.762;2022-10-16T13:40:02;7.40;;;4.10;;
28629;SDS011;15817;42.130;24.762;2022-10-16T13:42:43;11.98;;;3.55;;
28629;SDS011;15817;42.130;24.762;2022-10-16T13:45:22;5.25;;;3.40;;
28629;SDS011;15817;42.130;24.762;2022-10-16T13:48:01;8.38;;;3.38;;
28629;SDS011;15817;42.130;24.762;2022-10-16T13:50:37;5.57;;;3.60;;
28629;SDS011;15817;42.130;24.762;2022-10-16T13:53:06;5.93;;;4.20;;
28629;SDS011;15817;42.130;24.762;2022-10-16T13:55:37;5.80;;;3.58;;
28629;SDS011;15817;42.130;24.762;2022-10-16T13:58:12;5.07;;;3.40;;
28629;SDS011;15817;42.130;24.762;2022-10-16T14:00:39;7.30;;;4.07;;
28629;SDS011;15817;42.130;24.762;2022-10-16T14:03:23;7.47;;;3.33;;
28629;SDS011;15817;42.130;24.762;2022-10-16T14:05:57;10.60;;;3.53;;
28629;SDS011;15817;42.130;24.762;2022-10-16T14:08:54;8.85;;;3.97;;
28629;SDS011;15817;42.130;24.762;2022-10-16T14:11:44;6.10;;;3.53;;
28629;SDS011;15817;42.130;24.762;2022-10-16T14:14:15;4.70;;;3.50;;
28629;SDS011;15817;42.130;24.762;2022-10-16T14:16:42;5.35;;;3.60;;
28629;SDS011;15817;42.130;24.762;2022-10-16T14:19:28;3.90;;;3.20;;
28629;SDS011;15817;42.130;24.762;2022-10-16T14:21:59;7.82;;;3.63;;
28629;SDS011;15817;42.130;24.762;2022-10-16T14:24:31;4.82;;;3.53;;
28629;SDS011;15817;42.130;24.762;2022-10-16T14:26:59;6.95;;;3.35;;
28629;SDS011;15817;42.130;24.762;2022-10-16T14:29:27;7.10;;;3.30;;
28629;SDS011;15817;42.130;24.762;2022-10-16T14:31:57;6.80;;;3.53;;
28629;SDS011;15817;42.130;24.762;2022-10-16T14:34:52;5.95;;;3.67;;
28629;SDS011;15817;42.130;24.762;2022-10-16T14:37:27;7.10;;;3.65;;
28629;SDS011;15817;42.130;24.762;2022-10-16T14:39:54;12.75;;;3.50;;
28629;SDS011;15817;42.130;24.762;2022-10-16T14:42:27;13.48;;;4.20;;
28629;SDS011;15817;42.130;24.762;2022-10-16T14:44:58;9.75;;;3.92;;
28629;SDS011;15817;42.130;24.762;2022-10-16T14:47:37;19.40;;;4.40;;
28629;SDS011;15817;42.130;24.762;2022-10-16T14:50:35;22.42;;;5.43;;
28629;SDS011;15817;42.130;24.762;2022-10-16T14:53:07;16.33;;;4.00;;
28629;SDS011;15817;42.130;24.762;2022-10-16T14:55:36;13.00;;;4.60;;
28629;SDS011;15817;42.130;24.762;2022-10-16T14:58:05;10.23;;;4.18;;
28629;SDS011;15817;42.130;24.762;2022-10-16T15:00:38;10.95;;;4.07;;
28629;SDS011;15817;42.130;24.762;2022-10-16T15:03:06;7.70;;;4.95;;
28629;SDS011;15817;42.130;24.762;2022-10-16T15:05:42;12.82;;;9.73;;
28629;SDS011;15817;42.130;24.762;2022-10-16T15:08:11;7.45;;;4.85;;
28629;SDS011;15817;42.130;24.762;2022-10-16T15:10:42;10.07;;;5.20;;
28629;SDS011;15817;42.130;24.762;2022-10-16T15:13:21;9.32;;;5.05;;
28629;SDS011;15817;42.130;24.762;2022-10-16T15:15:51;8.75;;;4.53;;
28629;SDS011;15817;42.130;24.762;2022-10-16T15:18:35;11.70;;;3.78;;
28629;SDS011;15817;42.130;24.762;2022-10-16T15:21:03;8.43;;;4.50;;
28629;SDS011;15817;42.130;24.762;2022-10-16T15:23:33;9.77;;;3.80;;
28629;SDS011;15817;42.130;24.762;2022-10-16T15:26:01;6.15;;;3.65;;
28629;SDS011;15817;42.130;24.762;2022-10-16T15:28:27;6.20;;;3.97;;
28629;SDS011;15817;42.130;24.762;2022-10-16T15:30:54;7.10;;;4.28;;
28629;SDS011;15817;42.130;24.762;2022-10-16T15:33:22;7.22;;;4.45;;
28629;SDS011;15817;42.130;24.762;2022-10-16T15:35:55;11.23;;;4.15;;
28629;SDS011;15817;42.130;24.762;2022-10-16T15:38:27;9.88;;;4.15;;
28629;SDS011;15817;42.130;24.762;2022-10-16T15:40:56;9.75;;;4.15;;
28629;SDS011;15817;42.130;24.762;2022-10-16T15:43:31;5.43;;;3.45;;
28629;SDS011;15817;42.130;24.762;2022-10-16T15:49:51;6.50;;;3.90;;
28629;SDS011;15817;42.130;24.762;2022-10-16T15:52:42;5.38;;;3.90;;
28629;SDS011;15817;42.130;24.762;2022-10-16T15:55:16;8.13;;;4.15;;
28629;SDS011;15817;42.130;24.762;2022-10-16T15:57:51;9.90;;;4.32;;
28629;SDS011;15817;42.130;24.762;2022-10-16T16:00:19;8.70;;;3.90;;
28629;SDS011;15817;42.130;24.762;2022-10-16T16:02:51;8.60;;;4.53;;
28629;SDS011;15817;42.130;24.762;2022-10-16T16:05:42;6.70;;;3.90;;
28629;SDS011;15817;42.130;24.762;2022-10-16T16:08:17;7.18;;;4.70;;
28629;SDS011;15817;42.130;24.762;2022-10-16T16:10:56;8.18;;;4.47;;
28629;SDS011;15817;42.130;24.762;2022-10-16T16:13:30;8.73;;;4.53;;
28629;SDS011;15817;42.130;24.762;2022-10-16T16:16:12;8.75;;;4.55;;
28629;SDS011;15817;42.130;24.762;2022-10-16T16:21:37;11.57;;;5.32;;
28629;SDS011;15817;42.130;24.762;2022-10-16T16:27:09;14.73;;;8.10;;
28629;SDS011;15817;42.130;24.762;2022-10-16T16:29:47;10.77;;;6.97;;
28629;SDS011;15817;42.130;24.762;2022-10-16T16:43:42;9.95;;;5.13;;
28629;SDS011;15817;42.130;24.762;2022-10-16T16:46:27;9.45;;;5.05;;
28629;SDS011;15817;42.130;24.762;2022-10-16T16:49:16;14.13;;;5.78;;
28629;SDS011;15817;42.130;24.762;2022-10-16T16:51:53;13.48;;;5.32;;
28629;SDS011;15817;42.130;24.762;2022-10-16T16:54:34;14.27;;;5.78;;
28629;SDS011;15817;42.130;24.762;2022-10-16T16:57:14;14.88;;;6.57;;
28629;SDS011;15817;42.130;24.762;2022-10-16T16:59:49;10.43;;;5.85;;
28629;SDS011;15817;42.130;24.762;2022-10-16T17:02:30;13.52;;;5.63;;
28629;SDS011;15817;42.130;24.762;2022-10-16T17:05:12;13.00;;;6.10;;
28629;SDS011;15817;42.130;24.762;2022-10-16T17:07:38;10.05;;;5.10;;
28629;SDS011;15817;42.130;24.762;2022-10-16T17:10:06;16.15;;;5.50;;
28629;SDS011;15817;42.130;24.762;2022-10-16T17:12:33;13.52;;;6.10;;
28629;SDS011;15817;42.130;24.762;2022-10-16T17:14:59;12.43;;;6.30;;
28629;SDS011;15817;42.130;24.762;2022-10-16T17:17:28;12.88;;;6.45;;
28629;SDS011;15817;42.130;24.762;2022-10-16T17:20:00;12.52;;;6.53;;
28629;SDS011;15817;42.130;24.762;2022-10-16T17:28:30;9.32;;;5.85;;
28629;SDS011;15817;42.130;24.762;2022-10-16T17:31:14;10.10;;;5.47;;
28629;SDS011;15817;42.130;24.762;2022-10-16T17:33:48;12.45;;;5.70;;
28629;SDS011;15817;42.130;24.762;2022-10-16T17:36:16;13.18;;;6.20;;
28629;SDS011;15817;42.130;24.762;2022-10-16T17:39:04;12.50;;;6.90;;
28629;SDS011;15817;42.130;24.762;2022-10-16T17:41:41;13.35;;;7.10;;
28629;SDS011;15817;42.130;24.762;2022-10-16T17:44:10;14.43;;;7.20;;
28629;SDS011;15817;42.130;24.762;2022-10-16T17:46:47;11.85;;;7.15;;
28629;SDS011;15817;42.130;24.762;2022-10-16T17:49:16;17.02;;;7.95;;
28629;SDS011;15817;42.130;24.762;2022-10-16T17:51:43;19.52;;;7.93;;
28629;SDS011;15817;42.130;24.762;2022-10-16T17:54:09;17.92;;;8.32;;
28629;SDS011;15817;42.130;24.762;2022-10-16T17:56:53;14.73;;;7.25;;
28629;SDS011;15817;42.130;24.762;2022-10-16T17:59:19;11.27;;;5.68;;
28629;SDS011;15817;42.130;24.762;2022-10-16T18:01:56;15.02;;;6.78;;
28629;SDS011;15817;42.130;24.762;2022-10-16T18:04:42;16.58;;;7.95;;
28629;SDS011;15817;42.130;24.762;2022-10-16T18:07:10;17.17;;;6.82;;